Arlington, Maryland
Current Conditions -  °F | °C
As of 10:54 PM on Saturday 25 Oct 2014 (Local Time) from KBWI Reporting Station
Clear Clear  
Wind Chill: 59°   Ceiling: Unl
Heat Index: 59°   Visibility: 10mi
Dew Point: 42°   Wind: 7mph
Humidity: 53%   Direction: 250°WSW
Pressure: 29.71"   Gusts: NA
Location:  39.3453°N, 76.6832°W
Report Text: KBWI 260254Z 25006KT 10SM CLR 15/06 A2971 RMK AO2 SLP060 T01500056 56004
Loading
Personal Weather Stations






























Interactive Weather Map
Tropical Storm Tracking
New forecast layout! Learn more

10-Day Weather Forecast

Advertisements
Track Severe Weather on mobile